sensor_id;sensor_type;location;lat;lon;timestamp;pressure;altitude;pressure_sealevel;temperature;humidity
55733;BME280;41637;52.364;9.910;2022-11-20T00:01:21;100560.92;;;-3.55;84.07
55733;BME280;41637;52.364;9.910;2022-11-20T00:03:48;100560.64;;;-3.59;83.99
55733;BME280;41637;52.364;9.910;2022-11-20T00:06:18;100557.30;;;-3.61;84.11
55733;BME280;41637;52.364;9.910;2022-11-20T00:08:45;100553.88;;;-3.65;84.09
55733;BME280;41637;52.364;9.910;2022-11-20T00:11:15;100551.67;;;-3.69;84.19
55733;BME280;41637;52.364;9.910;2022-11-20T00:13:47;100555.31;;;-3.76;84.35
55733;BME280;41637;52.364;9.910;2022-11-20T00:16:16;100556.67;;;-3.81;84.88
55733;BME280;41637;52.364;9.910;2022-11-20T00:18:46;100557.27;;;-3.86;85.27
55733;BME280;41637;52.364;9.910;2022-11-20T00:21:15;100554.85;;;-3.88;85.35
55733;BME280;41637;52.364;9.910;2022-11-20T00:23:42;100554.67;;;-3.89;85.37
55733;BME280;41637;52.364;9.910;2022-11-20T00:26:11;100555.46;;;-3.87;85.34
55733;BME280;41637;52.364;9.910;2022-11-20T00:28:38;100552.83;;;-3.86;85.15
55733;BME280;41637;52.364;9.910;2022-11-20T00:31:15;100548.65;;;-3.86;85.04
55733;BME280;41637;52.364;9.910;2022-11-20T00:33:43;100552.52;;;-3.84;85.14
55733;BME280;41637;52.364;9.910;2022-11-20T00:36:17;100552.98;;;-3.83;85.30
55733;BME280;41637;52.364;9.910;2022-11-20T00:38:45;100555.77;;;-3.83;85.50
55733;BME280;41637;52.364;9.910;2022-11-20T00:41:13;100553.16;;;-3.83;85.43
55733;BME280;41637;52.364;9.910;2022-11-20T00:43:40;100548.78;;;-3.82;85.36
55733;BME280;41637;52.364;9.910;2022-11-20T00:48:38;100547.53;;;-3.78;85.15
55733;BME280;41637;52.364;9.910;2022-11-20T00:51:04;100544.87;;;-3.77;85.19
55733;BME280;41637;52.364;9.910;2022-11-20T00:53:31;100545.05;;;-3.77;85.15
55733;BME280;41637;52.364;9.910;2022-11-20T00:56:01;100541.30;;;-3.78;85.40
55733;BME280;41637;52.364;9.910;2022-11-20T00:58:30;100536.83;;;-3.79;85.44
55733;BME280;41637;52.364;9.910;2022-11-20T01:01:11;100538.66;;;-3.78;85.47
55733;BME280;41637;52.364;9.910;2022-11-20T01:03:41;100538.55;;;-3.76;85.30
55733;BME280;41637;52.364;9.910;2022-11-20T01:06:16;100537.05;;;-3.74;85.08
55733;BME280;41637;52.364;9.910;2022-11-20T01:08:43;100538.70;;;-3.72;85.20
55733;BME280;41637;52.364;9.910;2022-11-20T01:14:51;100538.70;;;-3.69;84.86
55733;BME280;41637;52.364;9.910;2022-11-20T01:17:17;100534.73;;;-3.69;84.63
55733;BME280;41637;52.364;9.910;2022-11-20T01:19:44;100536.79;;;-3.72;84.58
55733;BME280;41637;52.364;9.910;2022-11-20T01:22:10;100532.33;;;-3.73;84.56
55733;BME280;41637;52.364;9.910;2022-11-20T01:24:37;100529.38;;;-3.75;84.67
55733;BME280;41637;52.364;9.910;2022-11-20T01:27:06;100527.44;;;-3.78;85.00
55733;BME280;41637;52.364;9.910;2022-11-20T01:29:33;100531.54;;;-3.80;85.08
55733;BME280;41637;52.364;9.910;2022-11-20T01:31:59;100529.54;;;-3.81;85.26
55733;BME280;41637;52.364;9.910;2022-11-20T01:34:26;100529.17;;;-3.81;85.28
55733;BME280;41637;52.364;9.910;2022-11-20T01:36:52;100522.04;;;-3.80;85.29
55733;BME280;41637;52.364;9.910;2022-11-20T01:39:25;100516.54;;;-3.77;85.49
55733;BME280;41637;52.364;9.910;2022-11-20T01:41:53;100513.66;;;-3.75;85.68
55733;BME280;41637;52.364;9.910;2022-11-20T01:47:40;100508.52;;;-3.71;85.73
55733;BME280;41637;52.364;9.910;2022-11-20T01:50:26;100503.91;;;-3.68;85.81
55733;BME280;41637;52.364;9.910;2022-11-20T01:53:00;100504.67;;;-3.63;85.87
55733;BME280;41637;52.364;9.910;2022-11-20T01:55:32;100503.64;;;-3.60;86.00
55733;BME280;41637;52.364;9.910;2022-11-20T01:58:05;100498.65;;;-3.58;85.90
55733;BME280;41637;52.364;9.910;2022-11-20T02:00:32;100496.38;;;-3.54;85.86
55733;BME280;41637;52.364;9.910;2022-11-20T02:03:03;100495.04;;;-3.49;86.05
55733;BME280;41637;52.364;9.910;2022-11-20T02:08:21;100494.80;;;-3.36;85.56
55733;BME280;41637;52.364;9.910;2022-11-20T02:10:47;100493.06;;;-3.30;85.45
55733;BME280;41637;52.364;9.910;2022-11-20T02:13:14;100494.78;;;-3.24;85.69
55733;BME280;41637;52.364;9.910;2022-11-20T02:16:00;100494.56;;;-3.17;85.55
55733;BME280;41637;52.364;9.910;2022-11-20T02:18:27;100498.22;;;-3.12;85.52
55733;BME280;41637;52.364;9.910;2022-11-20T02:21:04;100494.65;;;-3.07;85.26
55733;BME280;41637;52.364;9.910;2022-11-20T02:23:38;100492.55;;;-3.01;85.14
55733;BME280;41637;52.364;9.910;2022-11-20T02:26:08;100489.30;;;-2.96;84.85
55733;BME280;41637;52.364;9.910;2022-11-20T02:28:38;100491.25;;;-2.91;84.81
55733;BME280;41637;52.364;9.910;2022-11-20T02:31:05;100483.94;;;-2.85;84.85
55733;BME280;41637;52.364;9.910;2022-11-20T02:33:32;100483.68;;;-2.78;84.69
55733;BME280;41637;52.364;9.910;2022-11-20T02:35:58;100482.32;;;-2.73;84.51
55733;BME280;41637;52.364;9.910;2022-11-20T02:38:24;100479.46;;;-2.68;84.12
55733;BME280;41637;52.364;9.910;2022-11-20T02:40:51;100476.14;;;-2.65;84.17
55733;BME280;41637;52.364;9.910;2022-11-20T02:43:21;100476.55;;;-2.61;83.95
55733;BME280;41637;52.364;9.910;2022-11-20T02:45:47;100479.78;;;-2.57;83.90
55733;BME280;41637;52.364;9.910;2022-11-20T02:48:14;100477.63;;;-2.56;83.81
55733;BME280;41637;52.364;9.910;2022-11-20T02:50:40;100475.59;;;-2.56;83.60
55733;BME280;41637;52.364;9.910;2022-11-20T02:53:07;100471.59;;;-2.56;83.51
55733;BME280;41637;52.364;9.910;2022-11-20T02:55:34;100465.36;;;-2.53;83.51
55733;BME280;41637;52.364;9.910;2022-11-20T02:58:00;100461.48;;;-2.52;83.40
55733;BME280;41637;52.364;9.910;2022-11-20T03:00:27;100464.49;;;-2.50;83.38
55733;BME280;41637;52.364;9.910;2022-11-20T03:02:53;100461.91;;;-2.51;83.39
55733;BME280;41637;52.364;9.910;2022-11-20T03:05:20;100459.08;;;-2.53;83.24
55733;BME280;41637;52.364;9.910;2022-11-20T03:07:46;100455.36;;;-2.54;82.99
55733;BME280;41637;52.364;9.910;2022-11-20T03:10:13;100458.45;;;-2.56;82.85
55733;BME280;41637;52.364;9.910;2022-11-20T03:12:39;100467.40;;;-2.58;83.03
55733;BME280;41637;52.364;9.910;2022-11-20T03:15:06;100468.16;;;-2.62;82.87
55733;BME280;41637;52.364;9.910;2022-11-20T03:17:33;100464.05;;;-2.68;82.75
55733;BME280;41637;52.364;9.910;2022-11-20T03:19:59;100460.88;;;-2.76;82.94
55733;BME280;41637;52.364;9.910;2022-11-20T03:22:28;100464.27;;;-2.80;82.99
55733;BME280;41637;52.364;9.910;2022-11-20T03:24:55;100463.69;;;-2.85;82.99
55733;BME280;41637;52.364;9.910;2022-11-20T03:27:22;100462.71;;;-2.89;83.22
55733;BME280;41637;52.364;9.910;2022-11-20T03:29:48;100458.45;;;-2.90;83.40
55733;BME280;41637;52.364;9.910;2022-11-20T03:32:14;100458.92;;;-2.92;83.31
55733;BME280;41637;52.364;9.910;2022-11-20T03:34:45;100455.65;;;-2.92;83.61
55733;BME280;41637;52.364;9.910;2022-11-20T03:37:15;100453.39;;;-2.92;83.40
55733;BME280;41637;52.364;9.910;2022-11-20T03:39:43;100445.45;;;-2.92;83.45
55733;BME280;41637;52.364;9.910;2022-11-20T03:42:09;100443.45;;;-2.91;83.82
55733;BME280;41637;52.364;9.910;2022-11-20T03:44:56;100446.05;;;-2.88;83.81
55733;BME280;41637;52.364;9.910;2022-11-20T03:47:25;100448.97;;;-2.88;83.65
55733;BME280;41637;52.364;9.910;2022-11-20T03:49:51;100448.16;;;-2.89;83.78
55733;BME280;41637;52.364;9.910;2022-11-20T03:52:18;100445.67;;;-2.90;83.91
55733;BME280;41637;52.364;9.910;2022-11-20T03:54:47;100442.53;;;-2.93;83.81
55733;BME280;41637;52.364;9.910;2022-11-20T03:57:13;100440.10;;;-2.92;83.87
55733;BME280;41637;52.364;9.910;2022-11-20T03:59:40;100440.55;;;-2.91;84.13
55733;BME280;41637;52.364;9.910;2022-11-20T04:02:06;100440.27;;;-2.92;84.14
55733;BME280;41637;52.364;9.910;2022-11-20T04:04:33;100442.12;;;-2.92;84.13
55733;BME280;41637;52.364;9.910;2022-11-20T04:06:59;100435.11;;;-2.90;84.18
55733;BME280;41637;52.364;9.910;2022-11-20T04:09:26;100433.63;;;-2.91;84.08
55733;BME280;41637;52.364;9.910;2022-11-20T04:11:52;100430.58;;;-2.95;84.07
55733;BME280;41637;52.364;9.910;2022-11-20T04:14:19;100425.16;;;-3.00;84.24
55733;BME280;41637;52.364;9.910;2022-11-20T04:16:51;100416.98;;;-3.02;84.31
55733;BME280;41637;52.364;9.910;2022-11-20T04:19:20;100412.41;;;-3.04;84.42
55733;BME280;41637;52.364;9.910;2022-11-20T04:21:47;100418.31;;;-3.04;84.46
55733;BME280;41637;52.364;9.910;2022-11-20T04:24:13;100419.11;;;-3.06;84.60
55733;BME280;41637;52.364;9.910;2022-11-20T04:26:40;100418.05;;;-3.05;84.58
55733;BME280;41637;52.364;9.910;2022-11-20T04:29:09;100416.85;;;-3.05;84.59
55733;BME280;41637;52.364;9.910;2022-11-20T04:31:36;100411.52;;;-3.06;84.83
55733;BME280;41637;52.364;9.910;2022-11-20T04:34:05;100414.09;;;-3.05;84.87
55733;BME280;41637;52.364;9.910;2022-11-20T04:36:32;100415.48;;;-3.05;85.04
55733;BME280;41637;52.364;9.910;2022-11-20T04:39:04;100411.44;;;-3.04;85.10
55733;BME280;41637;52.364;9.910;2022-11-20T04:41:33;100408.55;;;-3.02;84.98
55733;BME280;41637;52.364;9.910;2022-11-20T04:44:02;100405.27;;;-3.03;85.11
55733;BME280;41637;52.364;9.910;2022-11-20T04:46:33;100402.72;;;-3.04;85.15
55733;BME280;41637;52.364;9.910;2022-11-20T04:48:59;100405.82;;;-3.03;85.26
55733;BME280;41637;52.364;9.910;2022-11-20T04:51:26;100400.23;;;-3.02;85.29
55733;BME280;41637;52.364;9.910;2022-11-20T04:53:53;100404.35;;;-3.02;85.07
55733;BME280;41637;52.364;9.910;2022-11-20T04:56:20;100409.25;;;-3.00;85.38
55733;BME280;41637;52.364;9.910;2022-11-20T04:58:46;100413.91;;;-2.97;85.32
55733;BME280;41637;52.364;9.910;2022-11-20T05:01:18;100411.04;;;-2.93;85.24
55733;BME280;41637;52.364;9.910;2022-11-20T05:03:45;100414.20;;;-2.88;84.97
55733;BME280;41637;52.364;9.910;2022-11-20T05:06:14;100419.89;;;-2.84;85.01
55733;BME280;41637;52.364;9.910;2022-11-20T05:08:41;100421.84;;;-2.79;85.17
55733;BME280;41637;52.364;9.910;2022-11-20T05:11:17;100423.11;;;-2.75;84.86
55733;BME280;41637;52.364;9.910;2022-11-20T05:13:46;100420.11;;;-2.71;84.82
55733;BME280;41637;52.364;9.910;2022-11-20T05:16:34;100421.48;;;-2.68;84.74
55733;BME280;41637;52.364;9.910;2022-11-20T05:19:02;100423.70;;;-2.65;84.55
55733;BME280;41637;52.364;9.910;2022-11-20T05:21:31;100412.73;;;-2.61;84.66
55733;BME280;41637;52.364;9.910;2022-11-20T05:23:58;100414.10;;;-2.59;84.46
55733;BME280;41637;52.364;9.910;2022-11-20T05:26:25;100413.84;;;-2.57;84.08
55733;BME280;41637;52.364;9.910;2022-11-20T05:28:51;100411.63;;;-2.58;83.86
55733;BME280;41637;52.364;9.910;2022-11-20T05:31:21;100411.38;;;-2.59;83.73
55733;BME280;41637;52.364;9.910;2022-11-20T05:33:53;100406.99;;;-2.61;83.68
55733;BME280;41637;52.364;9.910;2022-11-20T05:36:23;100403.02;;;-2.61;83.82
55733;BME280;41637;52.364;9.910;2022-11-20T05:38:50;100400.86;;;-2.60;83.71
55733;BME280;41637;52.364;9.910;2022-11-20T05:41:26;100402.63;;;-2.60;83.66
55733;BME280;41637;52.364;9.910;2022-11-20T05:44:00;100398.20;;;-2.62;83.55
55733;BME280;41637;52.364;9.910;2022-11-20T05:46:26;100402.12;;;-2.60;83.29
55733;BME280;41637;52.364;9.910;2022-11-20T05:48:57;100397.36;;;-2.59;83.29
55733;BME280;41637;52.364;9.910;2022-11-20T05:51:25;100396.02;;;-2.57;83.23
55733;BME280;41637;52.364;9.910;2022-11-20T05:53:52;100386.23;;;-2.59;82.73
55733;BME280;41637;52.364;9.910;2022-11-20T05:56:19;100382.64;;;-2.59;82.81
55733;BME280;41637;52.364;9.910;2022-11-20T05:58:52;100379.87;;;-2.59;82.85
55733;BME280;41637;52.364;9.910;2022-11-20T06:01:24;100384.53;;;-2.56;82.80
55733;BME280;41637;52.364;9.910;2022-11-20T06:03:52;100385.23;;;-2.53;82.81
55733;BME280;41637;52.364;9.910;2022-11-20T06:06:22;100385.25;;;-2.51;82.78
55733;BME280;41637;52.364;9.910;2022-11-20T06:08:49;100384.20;;;-2.51;82.91
55733;BME280;41637;52.364;9.910;2022-11-20T06:11:16;100386.08;;;-2.51;82.90
55733;BME280;41637;52.364;9.910;2022-11-20T06:13:44;100383.05;;;-2.49;83.03
55733;BME280;41637;52.364;9.910;2022-11-20T06:16:12;100382.77;;;-2.45;83.03
55733;BME280;41637;52.364;9.910;2022-11-20T06:18:39;100381.87;;;-2.39;82.96
55733;BME280;41637;52.364;9.910;2022-11-20T06:21:14;100381.63;;;-2.38;82.82
55733;BME280;41637;52.364;9.910;2022-11-20T06:23:41;100378.39;;;-2.39;82.74
55733;BME280;41637;52.364;9.910;2022-11-20T06:26:11;100381.27;;;-2.40;82.78
55733;BME280;41637;52.364;9.910;2022-11-20T06:28:38;100380.23;;;-2.40;82.64
55733;BME280;41637;52.364;9.910;2022-11-20T06:31:06;100379.56;;;-2.40;82.75
55733;BME280;41637;52.364;9.910;2022-11-20T06:33:32;100381.59;;;-2.40;82.67
55733;BME280;41637;52.364;9.910;2022-11-20T06:36:00;100377.20;;;-2.39;82.62
55733;BME280;41637;52.364;9.910;2022-11-20T06:38:34;100378.54;;;-2.38;82.43
55733;BME280;41637;52.364;9.910;2022-11-20T06:41:00;100380.72;;;-2.37;82.48
55733;BME280;41637;52.364;9.910;2022-11-20T06:43:30;100379.62;;;-2.34;82.74
55733;BME280;41637;52.364;9.910;2022-11-20T06:45:58;100376.02;;;-2.29;82.59
55733;BME280;41637;52.364;9.910;2022-11-20T06:48:28;100370.34;;;-2.27;82.26
55733;BME280;41637;52.364;9.910;2022-11-20T06:50:58;100370.20;;;-2.28;82.16
55733;BME280;41637;52.364;9.910;2022-11-20T06:53:25;100375.21;;;-2.27;82.17
55733;BME280;41637;52.364;9.910;2022-11-20T06:55:52;100373.73;;;-2.26;82.11
55733;BME280;41637;52.364;9.910;2022-11-20T06:58:21;100369.48;;;-2.27;81.99
55733;BME280;41637;52.364;9.910;2022-11-20T07:00:48;100367.10;;;-2.30;81.88
55733;BME280;41637;52.364;9.910;2022-11-20T07:03:14;100366.45;;;-2.34;81.87
55733;BME280;41637;52.364;9.910;2022-11-20T07:05:41;100364.04;;;-2.36;82.03
55733;BME280;41637;52.364;9.910;2022-11-20T07:08:09;100364.54;;;-2.39;81.95
55733;BME280;41637;52.364;9.910;2022-11-20T07:10:36;100361.64;;;-2.42;82.24
55733;BME280;41637;52.364;9.910;2022-11-20T07:13:02;100362.30;;;-2.45;82.31
55733;BME280;41637;52.364;9.910;2022-11-20T07:15:29;100364.39;;;-2.44;82.33
55733;BME280;41637;52.364;9.910;2022-11-20T07:17:59;100361.20;;;-2.43;82.48
55733;BME280;41637;52.364;9.910;2022-11-20T07:20:28;100356.78;;;-2.42;82.40
55733;BME280;41637;52.364;9.910;2022-11-20T07:22:55;100362.11;;;-2.41;82.43
55733;BME280;41637;52.364;9.910;2022-11-20T07:25:23;100365.73;;;-2.38;82.45
55733;BME280;41637;52.364;9.910;2022-11-20T07:27:49;100359.55;;;-2.34;82.60
55733;BME280;41637;52.364;9.910;2022-11-20T07:30:16;100360.20;;;-2.33;82.44
55733;BME280;41637;52.364;9.910;2022-11-20T07:32:47;100358.09;;;-2.33;82.40
55733;BME280;41637;52.364;9.910;2022-11-20T07:35:13;100360.22;;;-2.31;82.49
55733;BME280;41637;52.364;9.910;2022-11-20T07:37:42;100354.14;;;-2.28;82.56
55733;BME280;41637;52.364;9.910;2022-11-20T07:40:09;100356.80;;;-2.29;82.48
55733;BME280;41637;52.364;9.910;2022-11-20T07:42:35;100357.83;;;-2.29;82.25
55733;BME280;41637;52.364;9.910;2022-11-20T07:45:02;100358.20;;;-2.27;82.20
55733;BME280;41637;52.364;9.910;2022-11-20T07:47:28;100362.13;;;-2.23;82.41
55733;BME280;41637;52.364;9.910;2022-11-20T07:49:55;100366.92;;;-2.17;82.36
55733;BME280;41637;52.364;9.910;2022-11-20T07:52:21;100367.48;;;-2.10;82.21
55733;BME280;41637;52.364;9.910;2022-11-20T07:54:48;100367.65;;;-2.02;82.30
55733;BME280;41637;52.364;9.910;2022-11-20T07:57:14;100373.06;;;-1.92;82.20
55733;BME280;41637;52.364;9.910;2022-11-20T07:59:40;100368.66;;;-1.83;82.03
55733;BME280;41637;52.364;9.910;2022-11-20T08:02:11;100368.43;;;-1.75;81.95
55733;BME280;41637;52.364;9.910;2022-11-20T08:04:37;100370.88;;;-1.70;81.78
55733;BME280;41637;52.364;9.910;2022-11-20T08:07:04;100370.63;;;-1.66;81.22
55733;BME280;41637;52.364;9.910;2022-11-20T08:09:30;100373.89;;;-1.63;80.84
55733;BME280;41637;52.364;9.910;2022-11-20T08:11:57;100366.96;;;-1.63;80.24
55733;BME280;41637;52.364;9.910;2022-11-20T08:14:42;100365.98;;;-1.61;80.22
55733;BME280;41637;52.364;9.910;2022-11-20T08:17:08;100366.91;;;-1.60;80.10
55733;BME280;41637;52.364;9.910;2022-11-20T08:19:35;100364.13;;;-1.57;80.10
55733;BME280;41637;52.364;9.910;2022-11-20T08:22:01;100365.18;;;-1.52;80.03
55733;BME280;41637;52.364;9.910;2022-11-20T08:24:29;100362.49;;;-1.49;79.68
55733;BME280;41637;52.364;9.910;2022-11-20T08:27:00;100361.28;;;-1.49;78.98
55733;BME280;41637;52.364;9.910;2022-11-20T08:29:26;100356.10;;;-1.52;78.68
55733;BME280;41637;52.364;9.910;2022-11-20T08:31:53;100361.84;;;-1.54;78.56
55733;BME280;41637;52.364;9.910;2022-11-20T08:34:19;100364.85;;;-1.55;78.52
55733;BME280;41637;52.364;9.910;2022-11-20T08:36:46;100370.11;;;-1.53;78.65
55733;BME280;41637;52.364;9.910;2022-11-20T08:39:13;100370.02;;;-1.52;78.56
55733;BME280;41637;52.364;9.910;2022-11-20T08:41:39;100367.65;;;-1.50;78.48
55733;BME280;41637;52.364;9.910;2022-11-20T08:44:09;100363.73;;;-1.49;78.32
55733;BME280;41637;52.364;9.910;2022-11-20T08:46:39;100363.57;;;-1.47;78.35
55733;BME280;41637;52.364;9.910;2022-11-20T08:49:08;100356.52;;;-1.42;78.52
55733;BME280;41637;52.364;9.910;2022-11-20T08:51:35;100356.16;;;-1.40;78.04
55733;BME280;41637;52.364;9.910;2022-11-20T08:54:03;100361.17;;;-1.32;78.05
55733;BME280;41637;52.364;9.910;2022-11-20T08:56:30;100359.30;;;-1.22;78.05
55733;BME280;41637;52.364;9.910;2022-11-20T08:58:58;100357.55;;;-1.10;78.18
55733;BME280;41637;52.364;9.910;2022-11-20T09:01:47;100360.42;;;-0.96;77.16
55733;BME280;41637;52.364;9.910;2022-11-20T09:04:13;100362.48;;;-0.89;76.65
55733;BME280;41637;52.364;9.910;2022-11-20T09:06:40;100370.38;;;-0.80;76.68
55733;BME280;41637;52.364;9.910;2022-11-20T09:09:09;100377.45;;;-0.72;76.62
55733;BME280;41637;52.364;9.910;2022-11-20T09:11:38;100376.89;;;-0.62;76.74
55733;BME280;41637;52.364;9.910;2022-11-20T09:14:05;100375.12;;;-0.59;75.92
55733;BME280;41637;52.364;9.910;2022-11-20T09:16:31;100367.92;;;-0.55;75.83
55733;BME280;41637;52.364;9.910;2022-11-20T09:18:58;100368.58;;;-0.53;75.46
55733;BME280;41637;52.364;9.910;2022-11-20T09:21:44;100365.25;;;-0.50;75.64
55733;BME280;41637;52.364;9.910;2022-11-20T09:24:13;100363.75;;;-0.44;75.72
55733;BME280;41637;52.364;9.910;2022-11-20T09:26:39;100364.56;;;-0.41;75.60
55733;BME280;41637;52.364;9.910;2022-11-20T09:29:06;100357.27;;;-0.41;75.28
55733;BME280;41637;52.364;9.910;2022-11-20T09:31:32;100340.14;;;-0.44;74.99
55733;BME280;41637;52.364;9.910;2022-11-20T09:33:58;100334.82;;;-0.47;75.11
55733;BME280;41637;52.364;9.910;2022-11-20T09:36:25;100339.27;;;-0.44;75.20
55733;BME280;41637;52.364;9.910;2022-11-20T09:38:52;100346.88;;;-0.34;75.40
55733;BME280;41637;52.364;9.910;2022-11-20T09:53:36;100356.80;;;0.42;73.58
55733;BME280;41637;52.364;9.910;2022-11-20T09:56:09;100355.71;;;0.59;73.14
55733;BME280;41637;52.364;9.910;2022-11-20T09:58:45;100358.30;;;0.70;72.21
55733;BME280;41637;52.364;9.910;2022-11-20T10:01:16;100355.54;;;0.74;70.96
55733;BME280;41637;52.364;9.910;2022-11-20T10:03:52;100352.48;;;0.85;71.37
55733;BME280;41637;52.364;9.910;2022-11-20T10:06:28;100349.70;;;0.96;70.83
55733;BME280;41637;52.364;9.910;2022-11-20T10:09:14;100353.44;;;1.01;69.90
55733;BME280;41637;52.364;9.910;2022-11-20T10:14:42;100350.55;;;1.09;69.31
55733;BME280;41637;52.364;9.910;2022-11-20T10:17:42;100349.16;;;1.13;68.87
55733;BME280;41637;52.364;9.910;2022-11-20T10:20:20;100345.19;;;1.13;68.99
55733;BME280;41637;52.364;9.910;2022-11-20T10:26:01;100342.02;;;1.11;69.19
55733;BME280;41637;52.364;9.910;2022-11-20T10:29:05;100341.55;;;1.12;68.98
55733;BME280;41637;52.364;9.910;2022-11-20T10:31:44;100343.61;;;1.11;68.75
55733;BME280;41637;52.364;9.910;2022-11-20T10:34:19;100340.98;;;1.17;69.00
55733;BME280;41637;52.364;9.910;2022-11-20T10:36:55;100339.27;;;1.24;68.62
55733;BME280;41637;52.364;9.910;2022-11-20T10:39:44;100333.70;;;1.28;68.35
55733;BME280;41637;52.364;9.910;2022-11-20T10:42:28;100329.67;;;1.37;68.62
55733;BME280;41637;52.364;9.910;2022-11-20T10:45:11;100325.17;;;1.47;68.61
55733;BME280;41637;52.364;9.910;2022-11-20T10:47:44;100321.20;;;1.55;67.73
55733;BME280;41637;52.364;9.910;2022-11-20T10:50:16;100315.86;;;1.59;67.48
55733;BME280;41637;52.364;9.910;2022-11-20T10:58:38;100315.28;;;1.93;66.58
55733;BME280;41637;52.364;9.910;2022-11-20T11:01:17;100319.91;;;1.98;65.24
55733;BME280;41637;52.364;9.910;2022-11-20T11:03:44;100317.80;;;2.05;65.17
55733;BME280;41637;52.364;9.910;2022-11-20T11:06:51;100313.02;;;2.12;64.80
55733;BME280;41637;52.364;9.910;2022-11-20T11:09:22;100305.52;;;2.22;64.48
55733;BME280;41637;52.364;9.910;2022-11-20T11:11:53;100302.30;;;2.33;65.12
55733;BME280;41637;52.364;9.910;2022-11-20T11:14:20;100302.30;;;2.46;64.55
55733;BME280;41637;52.364;9.910;2022-11-20T11:16:57;100301.23;;;2.52;64.02
55733;BME280;41637;52.364;9.910;2022-11-20T11:19:26;100298.14;;;2.54;63.45
55733;BME280;41637;52.364;9.910;2022-11-20T11:21:59;100295.80;;;2.58;63.75
55733;BME280;41637;52.364;9.910;2022-11-20T11:24:30;100291.95;;;2.72;64.05
55733;BME280;41637;52.364;9.910;2022-11-20T11:27:14;100289.52;;;2.86;63.46
55733;BME280;41637;52.364;9.910;2022-11-20T11:29:45;100290.79;;;2.90;63.16
55733;BME280;41637;52.364;9.910;2022-11-20T11:32:17;100285.66;;;2.97;63.10
55733;BME280;41637;52.364;9.910;2022-11-20T11:34:44;100282.89;;;2.94;62.18
55733;BME280;41637;52.364;9.910;2022-11-20T11:37:16;100281.73;;;2.88;61.82
55733;BME280;41637;52.364;9.910;2022-11-20T11:39:44;100287.12;;;2.80;61.95
55733;BME280;41637;52.364;9.910;2022-11-20T11:42:20;100282.33;;;2.77;62.64
55733;BME280;41637;52.364;9.910;2022-11-20T11:44:49;100286.86;;;2.77;62.79
55733;BME280;41637;52.364;9.910;2022-11-20T11:52:42;100286.10;;;2.67;62.26
55733;BME280;41637;52.364;9.910;2022-11-20T11:55:47;100282.13;;;2.69;62.41
55733;BME280;41637;52.364;9.910;2022-11-20T11:59:09;100281.20;;;2.68;62.68
55733;BME280;41637;52.364;9.910;2022-11-20T12:07:01;100275.98;;;2.57;63.40
55733;BME280;41637;52.364;9.910;2022-11-20T12:09:52;100275.16;;;2.57;63.68
55733;BME280;41637;52.364;9.910;2022-11-20T12:12:23;100268.66;;;2.55;64.05
55733;BME280;41637;52.364;9.910;2022-11-20T12:14:55;100261.83;;;2.56;64.50
55733;BME280;41637;52.364;9.910;2022-11-20T12:17:22;100259.17;;;2.58;64.74
55733;BME280;41637;52.364;9.910;2022-11-20T12:19:49;100261.28;;;2.62;65.04
55733;BME280;41637;52.364;9.910;2022-11-20T12:25:39;100261.08;;;2.68;64.32
55733;BME280;41637;52.364;9.910;2022-11-20T12:28:21;100257.19;;;2.69;64.72
55733;BME280;41637;52.364;9.910;2022-11-20T12:31:15;100261.39;;;2.62;65.56
55733;BME280;41637;52.364;9.910;2022-11-20T12:34:08;100256.52;;;2.58;65.57
55733;BME280;41637;52.364;9.910;2022-11-20T12:36:47;100251.86;;;2.56;65.83
55733;BME280;41637;52.364;9.910;2022-11-20T12:39:33;100252.06;;;2.55;65.94
55733;BME280;41637;52.364;9.910;2022-11-20T12:42:04;100247.83;;;2.60;65.76
55733;BME280;41637;52.364;9.910;2022-11-20T12:45:10;100248.61;;;2.73;65.81
55733;BME280;41637;52.364;9.910;2022-11-20T12:47:54;100244.12;;;2.88;65.49
55733;BME280;41637;52.364;9.910;2022-11-20T12:56:46;100242.69;;;3.45;64.01
55733;BME280;41637;52.364;9.910;2022-11-20T13:07:27;100242.94;;;3.73;63.10
55733;BME280;41637;52.364;9.910;2022-11-20T13:09:58;100240.42;;;3.78;62.83
55733;BME280;41637;52.364;9.910;2022-11-20T13:12:36;100235.85;;;3.80;62.39
55733;BME280;41637;52.364;9.910;2022-11-20T13:18:04;100241.36;;;3.59;62.39
55733;BME280;41637;52.364;9.910;2022-11-20T13:20:34;100244.89;;;3.50;62.53
55733;BME280;41637;52.364;9.910;2022-11-20T13:23:02;100240.06;;;3.43;62.75
55733;BME280;41637;52.364;9.910;2022-11-20T13:25:31;100240.65;;;3.35;62.87
55733;BME280;41637;52.364;9.910;2022-11-20T13:28:00;100239.08;;;3.29;62.68
55733;BME280;41637;52.364;9.910;2022-11-20T13:30:27;100243.98;;;3.19;62.71
55733;BME280;41637;52.364;9.910;2022-11-20T13:35:34;100235.30;;;3.22;63.66
55733;BME280;41637;52.364;9.910;2022-11-20T13:38:10;100229.23;;;3.69;62.57
55733;BME280;41637;52.364;9.910;2022-11-20T13:40:38;100233.06;;;3.64;62.34
55733;BME280;41637;52.364;9.910;2022-11-20T13:43:21;100228.30;;;3.55;62.51
55733;BME280;41637;52.364;9.910;2022-11-20T13:46:02;100224.81;;;3.47;62.51
55733;BME280;41637;52.364;9.910;2022-11-20T13:48:32;100221.30;;;3.36;62.19
55733;BME280;41637;52.364;9.910;2022-11-20T13:51:07;100217.92;;;3.25;62.74
55733;BME280;41637;52.364;9.910;2022-11-20T13:56:51;100212.63;;;3.04;63.50
55733;BME280;41637;52.364;9.910;2022-11-20T14:01:55;100219.14;;;2.92;63.85
55733;BME280;41637;52.364;9.910;2022-11-20T14:04:36;100220.66;;;2.89;63.83
55733;BME280;41637;52.364;9.910;2022-11-20T14:07:05;100218.63;;;2.84;64.17
55733;BME280;41637;52.364;9.910;2022-11-20T14:09:33;100221.88;;;2.79;64.09
55733;BME280;41637;52.364;9.910;2022-11-20T14:12:03;100221.05;;;2.74;64.60
55733;BME280;41637;52.364;9.910;2022-11-20T14:14:32;100222.77;;;2.73;64.88
55733;BME280;41637;52.364;9.910;2022-11-20T14:17:08;100225.80;;;2.88;65.63
55733;BME280;41637;52.364;9.910;2022-11-20T14:19:38;100218.25;;;3.17;64.87
55733;BME280;41637;52.364;9.910;2022-11-20T14:22:25;100218.55;;;3.16;64.43
55733;BME280;41637;52.364;9.910;2022-11-20T14:25:18;100211.79;;;3.16;64.46
55733;BME280;41637;52.364;9.910;2022-11-20T14:27:52;100216.03;;;3.09;63.93